Time;durP1;ratioP1;P1;durP2;ratioP2;P2;SDS_P1;SDS_P2;PMS_P1;PMS_P2;Temp;Humidity;BMP_temperature;BMP_pressure;BME280_temperature;BME280_humidity;BME280_pressure;Samples;Min_cycle;Max_cycle;Signal;HPM_P1;HPM_P2
2022/12/18 00:01:00;;;;;;;35.25;11.73;;;;;;;;;;4992967;28;20034;-66
2022/12/18 00:03:26;;;;;;;28.20;10.55;;;;;;;;;;4992345;28;20117;-69
2022/12/18 00:05:52;;;;;;;44.45;10.85;;;;;;;;;;4991016;28;20113;-66
2022/12/18 00:08:18;;;;;;;27.85;9.50;;;;;;;;;;4992991;28;20062;-66
2022/12/18 00:10:44;;;;;;;30.15;10.30;;;;;;;;;;4991505;28;20421;-67
2022/12/18 00:13:10;;;;;;;26.77;10.32;;;;;;;;;;4992929;28;20029;-66
2022/12/18 00:15:38;;;;;;;25.40;9.20;;;;;;;;;;4992596;28;20429;-66
2022/12/18 00:18:03;;;;;;;28.40;10.15;;;;;;;;;;4992886;28;20470;-68
2022/12/18 00:20:29;;;;;;;27.15;10.63;;;;;;;;;;4992767;28;20050;-66
2022/12/18 00:22:55;;;;;;;32.63;10.63;;;;;;;;;;4992226;28;20050;-65
2022/12/18 00:25:21;;;;;;;28.45;10.57;;;;;;;;;;4999850;28;20092;-67
2022/12/18 00:27:47;;;;;;;30.00;10.30;;;;;;;;;;5012097;28;20017;-64
2022/12/18 00:30:13;;;;;;;28.67;11.82;;;;;;;;;;5012156;28;20030;-65
2022/12/18 00:32:38;;;;;;;32.28;10.48;;;;;;;;;;5012210;28;20022;-65
2022/12/18 00:35:05;;;;;;;23.23;8.57;;;;;;;;;;5015876;28;20434;-66
2022/12/18 00:37:32;;;;;;;22.88;7.30;;;;;;;;;;5016372;28;20026;-67
2022/12/18 00:39:58;;;;;;;15.60;6.88;;;;;;;;;;5016230;28;20041;-66
2022/12/18 00:45:08;;;;;;;29.23;10.02;;;;;;;;;;5015875;28;20133;-66
2022/12/18 00:47:33;;;;;;;28.70;10.38;;;;;;;;;;5015984;28;20100;-64
2022/12/18 00:49:59;;;;;;;31.77;8.75;;;;;;;;;;5016127;28;20113;-67
2022/12/18 00:52:25;;;;;;;34.17;9.85;;;;;;;;;;5016191;28;20025;-65
2022/12/18 00:54:50;;;;;;;18.25;7.63;;;;;;;;;;5015959;28;20045;-64
2022/12/18 00:57:16;;;;;;;30.00;6.90;;;;;;;;;;5016072;28;20030;-66
2022/12/18 00:59:41;;;;;;;34.30;8.35;;;;;;;;;;5015508;28;20501;-64
2022/12/18 01:02:07;;;;;;;28.15;9.45;;;;;;;;;;5014578;28;20033;-66
2022/12/18 01:04:33;;;;;;;23.15;9.25;;;;;;;;;;5015629;28;20036;-66
2022/12/18 01:06:58;;;;;;;34.40;10.52;;;;;;;;;;5015569;28;20121;-67
2022/12/18 01:09:25;;;;;;;29.77;10.50;;;;;;;;;;5014472;28;20068;-67
2022/12/18 01:11:51;;;;;;;35.50;10.35;;;;;;;;;;5013461;28;20088;-66
2022/12/18 01:14:16;;;;;;;26.27;7.65;;;;;;;;;;4993673;28;20509;-68
2022/12/18 01:16:42;;;;;;;27.50;9.63;;;;;;;;;;4994459;28;20109;-66
2022/12/18 01:19:07;;;;;;;27.45;10.63;;;;;;;;;;4994462;28;20035;-66
2022/12/18 01:21:33;;;;;;;33.53;11.32;;;;;;;;;;4993075;28;20018;-66
2022/12/18 01:23:58;;;;;;;33.00;11.02;;;;;;;;;;4993981;28;20042;-65
2022/12/18 01:26:25;;;;;;;28.95;10.27;;;;;;;;;;4995709;28;20081;-66
2022/12/18 01:28:51;;;;;;;36.15;10.30;;;;;;;;;;4994179;28;20026;-65
2022/12/18 01:31:22;;;;;;;26.60;10.10;;;;;;;;;;4998242;28;20103;-66
2022/12/18 01:33:48;;;;;;;28.85;8.75;;;;;;;;;;4991641;28;20038;-65
2022/12/18 01:36:26;;;;;;;23.42;9.13;;;;;;;;;;4999947;28;20049;-65
2022/12/18 01:38:52;;;;;;;36.75;9.77;;;;;;;;;;5010915;28;20025;-64
2022/12/18 01:41:26;;;;;;;37.47;9.25;;;;;;;;;;5013848;28;20101;-65
2022/12/18 01:43:52;;;;;;;30.00;9.85;;;;;;;;;;5010029;28;20543;-64
2022/12/18 01:46:19;;;;;;;28.08;9.75;;;;;;;;;;5013580;28;20030;-64
2022/12/18 01:48:47;;;;;;;28.48;9.90;;;;;;;;;;5008653;28;20033;-65
2022/12/18 01:51:14;;;;;;;21.13;8.82;;;;;;;;;;5013523;28;20550;-66
2022/12/18 01:53:42;;;;;;;27.42;10.38;;;;;;;;;;5013407;28;20022;-64
2022/12/18 01:56:09;;;;;;;28.98;9.63;;;;;;;;;;5013435;28;20025;-68
2022/12/18 01:58:46;;;;;;;29.42;10.15;;;;;;;;;;5013116;28;20108;-67
2022/12/18 02:01:12;;;;;;;26.88;10.50;;;;;;;;;;5010714;28;20034;-65
2022/12/18 02:03:40;;;;;;;22.45;8.65;;;;;;;;;;5013494;28;20032;-67
2022/12/18 02:06:08;;;;;;;23.55;8.73;;;;;;;;;;5014293;28;20373;-67
2022/12/18 02:08:37;;;;;;;27.30;8.50;;;;;;;;;;5014304;28;20405;-67
2022/12/18 02:11:44;;;;;;;23.85;9.20;;;;;;;;;;5014361;28;20477;-67
2022/12/18 02:14:36;;;;;;;23.83;8.45;;;;;;;;;;4973165;28;20070;-66
2022/12/18 02:17:17;;;;;;;23.95;9.07;;;;;;;;;;4973137;28;20566;-66
2022/12/18 02:20:01;;;;;;;23.85;9.52;;;;;;;;;;4972656;28;20058;-65
2022/12/18 02:22:26;;;;;;;22.17;7.78;;;;;;;;;;4973060;28;20030;-66
2022/12/18 02:25:39;;;;;;;29.17;9.45;;;;;;;;;;4972538;28;20050;-68
2022/12/18 02:28:08;;;;;;;20.80;7.10;;;;;;;;;;4918221;29;20035;-66
2022/12/18 02:30:36;;;;;;;20.88;8.43;;;;;;;;;;4934083;29;20538;-65
2022/12/18 02:33:06;;;;;;;26.27;9.75;;;;;;;;;;4933507;29;20028;-65
2022/12/18 02:35:33;;;;;;;32.90;9.90;;;;;;;;;;4933403;29;20036;-65
2022/12/18 02:38:00;;;;;;;24.02;9.23;;;;;;;;;;4933222;29;20133;-65
2022/12/18 02:40:28;;;;;;;28.25;9.70;;;;;;;;;;4933426;29;20071;-66
2022/12/18 02:42:53;;;;;;;25.33;9.50;;;;;;;;;;4933087;29;20094;-66
2022/12/18 02:45:19;;;;;;;28.42;9.93;;;;;;;;;;4933800;29;20036;-68
2022/12/18 02:47:49;;;;;;;38.15;10.60;;;;;;;;;;4933878;29;20450;-65
2022/12/18 02:50:37;;;;;;;27.60;10.48;;;;;;;;;;4941922;28;20561;-65
2022/12/18 02:53:09;;;;;;;26.83;10.10;;;;;;;;;;4972581;28;20039;-65
2022/12/18 02:56:07;;;;;;;27.15;10.15;;;;;;;;;;4971703;28;20490;-66
2022/12/18 02:58:58;;;;;;;34.92;11.30;;;;;;;;;;4967310;28;20489;-66
2022/12/18 03:02:03;;;;;;;27.95;11.73;;;;;;;;;;4972465;28;20027;-66
2022/12/18 03:04:38;;;;;;;25.63;9.95;;;;;;;;;;4998626;28;20045;-65
2022/12/18 03:07:09;;;;;;;32.65;11.23;;;;;;;;;;5013543;28;20029;-66
2022/12/18 03:09:40;;;;;;;24.55;10.20;;;;;;;;;;5013081;28;20040;-67
2022/12/18 03:12:27;;;;;;;32.95;10.95;;;;;;;;;;5012673;28;20565;-68
2022/12/18 03:15:05;;;;;;;30.50;11.07;;;;;;;;;;5012412;28;20410;-66
2022/12/18 03:17:32;;;;;;;27.33;10.25;;;;;;;;;;5012372;28;20030;-65
2022/12/18 03:20:05;;;;;;;31.00;11.13;;;;;;;;;;5012368;28;20056;-65
2022/12/18 03:22:32;;;;;;;24.75;8.88;;;;;;;;;;5013166;28;20021;-65
2022/12/18 03:25:02;;;;;;;27.35;10.70;;;;;;;;;;5012669;28;20034;-65
2022/12/18 03:27:30;;;;;;;21.30;9.43;;;;;;;;;;5013142;28;20500;-66
2022/12/18 03:30:10;;;;;;;24.67;8.85;;;;;;;;;;5012944;28;20069;-68
2022/12/18 03:32:47;;;;;;;33.95;11.40;;;;;;;;;;5013040;28;20022;-65
2022/12/18 03:35:18;;;;;;;33.10;10.60;;;;;;;;;;5012932;28;20438;-68
2022/12/18 03:37:44;;;;;;;28.60;8.55;;;;;;;;;;5012773;28;20167;-66
2022/12/18 03:40:09;;;;;;;35.05;11.30;;;;;;;;;;5012121;28;20029;-65
2022/12/18 03:42:56;;;;;;;46.22;14.07;;;;;;;;;;5012125;28;20030;-65
2022/12/18 03:45:41;;;;;;;30.27;11.65;;;;;;;;;;5012042;28;20021;-66
2022/12/18 03:48:39;;;;;;;37.53;12.20;;;;;;;;;;5011998;28;20049;-65
2022/12/18 03:51:15;;;;;;;31.65;11.52;;;;;;;;;;4971100;28;20042;-65
2022/12/18 03:53:56;;;;;;;42.42;13.88;;;;;;;;;;4955207;28;20046;-65
2022/12/18 03:56:23;;;;;;;38.40;11.88;;;;;;;;;;4971421;28;20131;-66
2022/12/18 03:58:51;;;;;;;34.78;11.20;;;;;;;;;;4971507;28;20057;-68
2022/12/18 04:01:19;;;;;;;22.02;9.50;;;;;;;;;;4971288;28;20453;-67
2022/12/18 04:03:49;;;;;;;13.57;7.32;;;;;;;;;;4971171;28;20037;-67
2022/12/18 04:06:15;;;;;;;27.48;10.63;;;;;;;;;;4971311;28;20514;-68
2022/12/18 04:08:41;;;;;;;33.25;11.75;;;;;;;;;;4970757;28;20058;-65
2022/12/18 04:11:07;;;;;;;32.92;12.90;;;;;;;;;;4970488;28;20037;-68
2022/12/18 04:13:35;;;;;;;31.98;12.02;;;;;;;;;;4970290;28;20047;-65
2022/12/18 04:16:01;;;;;;;27.38;9.93;;;;;;;;;;4970284;28;20055;-66
2022/12/18 04:18:26;;;;;;;34.45;13.05;;;;;;;;;;4970132;28;20151;-65
2022/12/18 04:20:52;;;;;;;26.15;10.27;;;;;;;;;;4970904;28;20046;-68
2022/12/18 04:23:18;;;;;;;37.78;12.70;;;;;;;;;;4970626;28;20062;-66
2022/12/18 04:25:43;;;;;;;27.00;10.50;;;;;;;;;;4975725;28;20093;-68
2022/12/18 04:28:09;;;;;;;34.05;13.10;;;;;;;;;;5012306;28;20030;-66
2022/12/18 04:30:34;;;;;;;31.45;11.02;;;;;;;;;;5012290;28;20068;-66
2022/12/18 04:33:00;;;;;;;24.35;9.40;;;;;;;;;;5012329;28;20030;-66
2022/12/18 04:35:25;;;;;;;36.72;12.93;;;;;;;;;;5012322;28;20046;-66
2022/12/18 04:37:51;;;;;;;35.88;12.23;;;;;;;;;;5011894;28;20473;-67
2022/12/18 04:40:16;;;;;;;39.15;13.23;;;;;;;;;;5011946;28;20056;-65
2022/12/18 04:42:42;;;;;;;30.30;10.82;;;;;;;;;;5011289;28;20026;-66
2022/12/18 04:45:08;;;;;;;32.83;12.80;;;;;;;;;;5011265;28;20122;-66
2022/12/18 04:47:33;;;;;;;36.20;13.63;;;;;;;;;;5011098;28;20026;-67
2022/12/18 04:49:59;;;;;;;33.10;11.73;;;;;;;;;;5011667;28;20040;-65
2022/12/18 04:52:24;;;;;;;35.13;13.40;;;;;;;;;;5010592;28;20224;-66
2022/12/18 04:54:50;;;;;;;31.98;13.27;;;;;;;;;;5012110;28;20030;-64
2022/12/18 04:57:15;;;;;;;29.58;12.60;;;;;;;;;;5012077;28;20053;-65
2022/12/18 04:59:41;;;;;;;39.03;13.85;;;;;;;;;;5011867;28;20018;-64
2022/12/18 05:02:06;;;;;;;23.60;10.35;;;;;;;;;;5012054;28;20048;-67
2022/12/18 05:04:32;;;;;;;29.65;10.60;;;;;;;;;;5011766;28;20392;-67
2022/12/18 05:06:57;;;;;;;40.25;13.13;;;;;;;;;;5011775;28;20036;-65
2022/12/18 05:09:23;;;;;;;25.83;11.07;;;;;;;;;;5011787;28;20014;-67
2022/12/18 05:11:48;;;;;;;31.27;11.43;;;;;;;;;;5010901;28;20030;-66
2022/12/18 05:14:14;;;;;;;33.10;12.23;;;;;;;;;;5011032;28;20385;-66
2022/12/18 05:16:39;;;;;;;35.08;11.85;;;;;;;;;;5011097;28;20022;-67
2022/12/18 05:19:05;;;;;;;35.65;13.07;;;;;;;;;;5011407;28;20026;-65
2022/12/18 05:21:30;;;;;;;35.78;13.60;;;;;;;;;;5014932;28;20021;-65
2022/12/18 05:23:56;;;;;;;22.05;11.18;;;;;;;;;;5014976;28;20038;-65
2022/12/18 05:26:21;;;;;;;35.13;12.20;;;;;;;;;;5015315;28;20116;-65
2022/12/18 05:28:47;;;;;;;17.58;6.53;;;;;;;;;;5015231;28;20408;-67
2022/12/18 05:31:12;;;;;;;23.15;10.10;;;;;;;;;;5015228;28;20026;-65
2022/12/18 05:33:38;;;;;;;24.17;10.02;;;;;;;;;;5013910;28;20061;-66
2022/12/18 05:36:06;;;;;;;33.40;11.13;;;;;;;;;;5015077;28;20093;-65
2022/12/18 05:38:33;;;;;;;29.42;12.10;;;;;;;;;;5014820;28;20034;-66
2022/12/18 05:40:59;;;;;;;22.92;10.55;;;;;;;;;;5014258;28;20022;-65
2022/12/18 05:43:26;;;;;;;23.38;10.25;;;;;;;;;;5014184;28;20036;-66
2022/12/18 05:45:51;;;;;;;30.88;12.05;;;;;;;;;;5012890;28;20068;-65
2022/12/18 05:48:17;;;;;;;28.75;10.10;;;;;;;;;;5012677;28;20385;-66
2022/12/18 05:50:47;;;;;;;32.67;12.38;;;;;;;;;;5014642;28;20036;-66
2022/12/18 05:53:14;;;;;;;38.53;12.60;;;;;;;;;;5014956;28;20504;-66
2022/12/18 05:55:42;;;;;;;32.65;11.80;;;;;;;;;;5014730;28;20042;-65
2022/12/18 05:58:09;;;;;;;30.00;11.55;;;;;;;;;;5014843;28;20057;-69
2022/12/18 06:00:39;;;;;;;20.67;9.30;;;;;;;;;;5014719;28;20500;-67
2022/12/18 06:03:06;;;;;;;28.52;10.02;;;;;;;;;;5014684;28;20041;-66
2022/12/18 06:05:37;;;;;;;31.67;12.43;;;;;;;;;;5014452;28;20068;-65
2022/12/18 06:08:02;;;;;;;31.63;11.23;;;;;;;;;;5014626;28;20076;-67
2022/12/18 06:10:28;;;;;;;27.58;9.93;;;;;;;;;;5013836;28;20442;-65
2022/12/18 06:12:53;;;;;;;20.10;10.68;;;;;;;;;;5013710;28;20062;-67
2022/12/18 06:15:19;;;;;;;22.80;10.60;;;;;;;;;;5013682;28;20018;-66
2022/12/18 06:17:44;;;;;;;29.42;10.85;;;;;;;;;;5013341;28;20029;-67
2022/12/18 06:20:10;;;;;;;16.10;7.57;;;;;;;;;;5013990;28;20030;-66
2022/12/18 06:22:35;;;;;;;17.70;8.98;;;;;;;;;;5012752;28;20030;-66
2022/12/18 06:25:01;;;;;;;28.65;11.00;;;;;;;;;;5013835;28;20396;-66
2022/12/18 06:27:26;;;;;;;27.55;10.75;;;;;;;;;;5013979;28;20065;-65
2022/12/18 06:29:52;;;;;;;15.43;7.30;;;;;;;;;;5013709;28;20072;-64
2022/12/18 06:32:17;;;;;;;31.52;10.15;;;;;;;;;;5013021;28;20033;-67
2022/12/18 06:34:43;;;;;;;28.27;10.63;;;;;;;;;;5013829;28;20113;-65
2022/12/18 06:37:08;;;;;;;21.83;10.30;;;;;;;;;;5013485;28;20061;-65
2022/12/18 06:39:34;;;;;;;19.00;8.77;;;;;;;;;;5013780;28;20026;-64
2022/12/18 06:41:59;;;;;;;17.55;8.00;;;;;;;;;;5013377;28;20037;-67
2022/12/18 06:44:24;;;;;;;8.93;5.25;;;;;;;;;;5012945;28;20449;-65
2022/12/18 06:46:50;;;;;;;19.65;8.60;;;;;;;;;;5013113;28;20033;-65
2022/12/18 06:49:15;;;;;;;23.75;9.40;;;;;;;;;;5012674;28;20026;-65
2022/12/18 06:51:42;;;;;;;21.95;9.25;;;;;;;;;;5013332;28;20358;-66
2022/12/18 06:54:07;;;;;;;17.85;8.77;;;;;;;;;;5013747;28;20368;-65
2022/12/18 06:56:33;;;;;;;16.77;8.27;;;;;;;;;;5013576;28;20033;-64
2022/12/18 06:58:58;;;;;;;20.52;9.38;;;;;;;;;;5013556;28;20565;-65
2022/12/18 07:01:24;;;;;;;25.35;11.57;;;;;;;;;;5013586;28;20032;-66
2022/12/18 07:03:55;;;;;;;17.85;8.45;;;;;;;;;;5013200;28;20497;-64
2022/12/18 07:06:21;;;;;;;22.35;9.05;;;;;;;;;;5013441;28;20026;-65
2022/12/18 07:08:48;;;;;;;18.38;8.05;;;;;;;;;;5012206;28;20532;-65
2022/12/18 07:11:14;;;;;;;26.55;10.40;;;;;;;;;;5013355;28;20029;-65
2022/12/18 07:13:39;;;;;;;19.58;8.85;;;;;;;;;;5013262;28;20032;-65
2022/12/18 07:16:10;;;;;;;21.95;8.52;;;;;;;;;;5012356;28;20435;-67
2022/12/18 07:18:35;;;;;;;;;;;;;;;;;;5012794;28;20318;-67
2022/12/18 07:21:13;;;;;;;14.43;7.72;;;;;;;;;;5012233;28;19921;-65
2022/12/18 07:23:39;;;;;;;15.48;7.57;;;;;;;;;;5011660;28;20053;-64
2022/12/18 07:26:07;;;;;;;12.70;6.07;;;;;;;;;;5012818;28;20045;-64
2022/12/18 07:28:33;;;;;;;10.02;5.95;;;;;;;;;;5013001;28;20053;-65
2022/12/18 07:31:10;;;;;;;25.13;9.15;;;;;;;;;;5012713;28;20053;-65
2022/12/18 07:33:36;;;;;;;16.17;7.13;;;;;;;;;;5012782;28;20034;-65
2022/12/18 07:36:04;;;;;;;21.50;7.28;;;;;;;;;;5012753;28;20097;-67
2022/12/18 07:38:30;;;;;;;16.75;7.95;;;;;;;;;;5012533;28;20026;-64
2022/12/18 07:41:03;;;;;;;20.85;10.80;;;;;;;;;;5012795;28;20483;-65
2022/12/18 07:43:29;;;;;;;9.80;5.82;;;;;;;;;;5010125;28;20615;-65
2022/12/18 07:45:55;;;;;;;19.15;6.93;;;;;;;;;;5011419;28;20043;-65
2022/12/18 07:48:20;;;;;;;11.85;7.63;;;;;;;;;;5011266;28;20392;-64
2022/12/18 07:50:46;;;;;;;17.48;6.53;;;;;;;;;;5009559;28;20022;-66
2022/12/18 07:53:11;;;;;;;20.25;7.80;;;;;;;;;;5011913;28;20026;-65
2022/12/18 07:55:37;;;;;;;17.20;7.70;;;;;;;;;;5011835;28;20033;-66
2022/12/18 07:58:04;;;;;;;14.57;5.78;;;;;;;;;;5006612;28;20128;-67
2022/12/18 08:00:30;;;;;;;25.52;8.85;;;;;;;;;;4991189;28;20026;-66
2022/12/18 08:02:55;;;;;;;15.32;7.63;;;;;;;;;;4992738;28;20026;-66
2022/12/18 08:05:21;;;;;;;15.55;6.55;;;;;;;;;;4988444;28;20400;-67
2022/12/18 08:07:47;;;;;;;19.27;8.75;;;;;;;;;;4986334;28;20027;-67
2022/12/18 08:10:13;;;;;;;11.85;5.45;;;;;;;;;;4982340;28;20481;-68
2022/12/18 08:12:38;;;;;;;27.17;9.75;;;;;;;;;;4992388;28;20026;-68
2022/12/18 08:15:04;;;;;;;19.38;9.35;;;;;;;;;;4991868;28;20026;-67
2022/12/18 08:17:30;;;;;;;24.30;9.10;;;;;;;;;;4976651;28;20515;-67
2022/12/18 08:19:55;;;;;;;16.00;7.55;;;;;;;;;;4990273;28;20034;-66
2022/12/18 08:22:21;;;;;;;26.95;9.65;;;;;;;;;;4989998;28;20030;-65
2022/12/18 08:24:46;;;;;;;25.33;9.10;;;;;;;;;;4993297;28;20419;-67
2022/12/18 08:27:12;;;;;;;14.35;7.07;;;;;;;;;;5005027;28;20038;-69
2022/12/18 08:29:38;;;;;;;25.30;8.43;;;;;;;;;;4992144;28;20023;-67
2022/12/18 08:32:04;;;;;;;20.75;9.60;;;;;;;;;;4992395;28;20060;-67
2022/12/18 08:34:29;;;;;;;24.27;10.88;;;;;;;;;;4992285;28;20080;-67
2022/12/18 08:36:55;;;;;;;20.25;9.23;;;;;;;;;;4992489;28;20019;-67
2022/12/18 08:39:20;;;;;;;20.02;8.93;;;;;;;;;;4991982;28;20034;-67
2022/12/18 08:44:37;;;;;;;12.13;5.88;;;;;;;;;;4991905;28;20058;-67
2022/12/18 08:44:41;;;;;;;16.02;6.97;;;;;;;;;;4991393;28;20046;-67
2022/12/18 08:47:07;;;;;;;21.48;9.40;;;;;;;;;;4992624;28;20061;-66
2022/12/18 08:49:33;;;;;;;11.68;6.80;;;;;;;;;;4992562;28;20425;-68
2022/12/18 08:51:59;;;;;;;23.05;8.25;;;;;;;;;;4991479;28;20022;-66
2022/12/18 08:54:25;;;;;;;25.92;11.57;;;;;;;;;;4991422;28;20069;-66
2022/12/18 08:56:50;;;;;;;21.67;8.10;;;;;;;;;;4994411;28;20093;-66
2022/12/18 08:59:17;;;;;;;14.30;7.53;;;;;;;;;;4994321;28;20354;-66
2022/12/18 09:01:43;;;;;;;16.70;7.03;;;;;;;;;;4994500;28;20115;-67
2022/12/18 09:04:09;;;;;;;25.40;10.77;;;;;;;;;;4993188;28;20058;-67
2022/12/18 09:06:34;;;;;;;27.63;10.10;;;;;;;;;;4994816;28;20088;-67
2022/12/18 09:09:00;;;;;;;15.02;7.18;;;;;;;;;;4995823;28;20477;-67
2022/12/18 09:11:28;;;;;;;18.77;9.82;;;;;;;;;;4995964;28;20061;-67
2022/12/18 09:13:54;;;;;;;23.42;9.45;;;;;;;;;;4995512;28;20105;-67
2022/12/18 09:16:21;;;;;;;22.33;9.88;;;;;;;;;;4995776;28;20038;-67
2022/12/18 09:18:47;;;;;;;17.92;8.10;;;;;;;;;;4995780;28;20088;-67
2022/12/18 09:21:18;;;;;;;25.17;10.57;;;;;;;;;;4995327;28;20135;-67
2022/12/18 09:23:48;;;;;;;22.92;10.07;;;;;;;;;;4995250;28;20039;-67
2022/12/18 09:26:14;;;;;;;20.63;9.00;;;;;;;;;;5009858;28;20029;-67
2022/12/18 09:28:39;;;;;;;14.80;7.20;;;;;;;;;;5014870;28;20026;-66
2022/12/18 09:31:07;;;;;;;20.73;7.45;;;;;;;;;;5015144;28;20096;-67
2022/12/18 09:33:33;;;;;;;13.55;6.93;;;;;;;;;;5015178;28;20026;-66
2022/12/18 09:36:02;;;;;;;18.67;9.43;;;;;;;;;;5013317;28;20022;-66
2022/12/18 09:38:28;;;;;;;29.30;13.73;;;;;;;;;;5015063;28;20131;-67
2022/12/18 09:40:58;;;;;;;22.88;9.35;;;;;;;;;;5015128;28;20073;-66
2022/12/18 09:43:41;;;;;;;20.90;11.38;;;;;;;;;;5014833;28;20048;-66
2022/12/18 09:46:16;;;;;;;26.02;9.88;;;;;;;;;;5015151;28;20033;-67
2022/12/18 09:48:46;;;;;;;21.58;8.82;;;;;;;;;;5014862;28;20026;-67
2022/12/18 09:51:16;;;;;;;18.35;8.60;;;;;;;;;;5014882;28;20042;-67
2022/12/18 09:53:46;;;;;;;27.90;12.32;;;;;;;;;;5014855;28;20038;-66
2022/12/18 09:56:19;;;;;;;18.27;8.07;;;;;;;;;;5014727;28;20025;-67
2022/12/18 09:59:01;;;;;;;22.35;9.82;;;;;;;;;;5014822;28;20247;-67
2022/12/18 10:01:27;;;;;;;19.75;8.75;;;;;;;;;;5014891;28;20036;-66
2022/12/18 10:03:54;;;;;;;27.92;10.57;;;;;;;;;;5014536;28;20131;-70
2022/12/18 10:06:35;;;;;;;20.90;9.80;;;;;;;;;;5014377;28;20026;-67
2022/12/18 10:09:41;;;;;;;24.05;9.85;;;;;;;;;;5014249;28;20061;-67
2022/12/18 10:12:18;;;;;;;21.70;10.32;;;;;;;;;;5008735;28;20180;-66
2022/12/18 10:14:44;;;;;;;26.42;9.82;;;;;;;;;;5014567;28;20116;-67
2022/12/18 10:17:21;;;;;;;20.05;9.80;;;;;;;;;;5014464;28;20498;-68
2022/12/18 10:20:01;;;;;;;20.63;9.40;;;;;;;;;;5014311;28;20058;-66
2022/12/18 10:22:50;;;;;;;23.23;10.15;;;;;;;;;;5014355;28;20029;-67
2022/12/18 10:25:28;;;;;;;19.63;9.80;;;;;;;;;;5012423;28;20053;-68
2022/12/18 10:28:07;;;;;;;26.63;11.70;;;;;;;;;;5014242;28;20040;-67
2022/12/18 10:30:32;;;;;;;29.35;11.35;;;;;;;;;;5012990;28;20477;-67
2022/12/18 10:33:04;;;;;;;25.33;11.05;;;;;;;;;;5013978;28;20152;-68
2022/12/18 10:35:30;;;;;;;29.52;11.60;;;;;;;;;;5013474;28;20037;-66
2022/12/18 10:38:14;;;;;;;25.30;10.23;;;;;;;;;;5013808;28;20029;-66
2022/12/18 10:41:01;;;;;;;24.50;10.95;;;;;;;;;;5013590;28;20481;-67
2022/12/18 10:43:34;;;;;;;28.92;12.43;;;;;;;;;;5014119;28;20473;-66
2022/12/18 10:46:14;;;;;;;20.42;10.07;;;;;;;;;;5014091;28;20037;-66
2022/12/18 10:48:48;;;;;;;25.05;9.30;;;;;;;;;;5013602;28;20033;-67
2022/12/18 10:51:29;;;;;;;18.13;10.18;;;;;;;;;;5013965;28;20030;-67
2022/12/18 10:54:04;;;;;;;27.30;14.88;;;;;;;;;;5013522;28;20481;-67
2022/12/18 10:56:33;;;;;;;24.42;12.05;;;;;;;;;;5013862;28;20026;-67
2022/12/18 10:59:04;;;;;;;17.38;7.70;;;;;;;;;;5013529;28;20038;-67
2022/12/18 11:01:51;;;;;;;28.58;12.63;;;;;;;;;;5013792;28;20028;-67
2022/12/18 11:04:21;;;;;;;16.75;8.30;;;;;;;;;;5013591;28;20433;-67
2022/12/18 11:07:12;;;;;;;23.48;9.52;;;;;;;;;;5013558;28;20046;-67
2022/12/18 11:09:39;;;;;;;23.73;11.52;;;;;;;;;;5011208;28;20497;-66
2022/12/18 11:12:28;;;;;;;14.95;7.97;;;;;;;;;;5013496;28;20109;-67
2022/12/18 11:14:55;;;;;;;11.73;7.03;;;;;;;;;;5013264;28;20029;-66
2022/12/18 11:17:35;;;;;;;17.40;9.43;;;;;;;;;;5012714;28;20551;-66
2022/12/18 11:20:07;;;;;;;23.73;10.80;;;;;;;;;;5013397;28;20021;-66
2022/12/18 11:22:38;;;;;;;22.50;9.10;;;;;;;;;;5013159;28;20032;-67
2022/12/18 11:25:06;;;;;;;25.00;9.80;;;;;;;;;;5013056;28;20546;-66
2022/12/18 11:27:32;;;;;;;23.63;8.75;;;;;;;;;;5012183;28;20069;-67
2022/12/18 11:30:34;;;;;;;21.88;12.02;;;;;;;;;;5013201;28;20469;-67
2022/12/18 11:33:20;;;;;;;22.80;10.68;;;;;;;;;;4972052;28;20053;-67
2022/12/18 11:36:16;;;;;;;21.25;10.07;;;;;;;;;;4971763;28;20039;-67
2022/12/18 11:38:45;;;;;;;23.40;9.50;;;;;;;;;;4955778;28;20035;-67
2022/12/18 11:42:08;;;;;;;15.65;7.30;;;;;;;;;;4971881;28;20041;-68
2022/12/18 11:44:14;;;;;;;26.33;12.40;;;;;;;;;;4971438;28;20039;-66
2022/12/18 11:46:47;;;;;;;22.17;9.55;;;;;;;;;;4971868;28;20122;-66
2022/12/18 11:49:20;;;;;;;22.85;10.65;;;;;;;;;;4971913;28;20055;-67
2022/12/18 11:52:00;;;;;;;31.25;14.05;;;;;;;;;;4971602;28;20107;-66
2022/12/18 11:54:26;;;;;;;25.80;10.15;;;;;;;;;;4971323;28;20118;-67
2022/12/18 11:56:58;;;;;;;27.38;11.43;;;;;;;;;;4971796;28;20078;-67
2022/12/18 11:59:47;;;;;;;22.60;10.45;;;;;;;;;;4971712;28;20022;-67
2022/12/18 12:02:40;;;;;;;26.55;11.80;;;;;;;;;;4971438;28;20046;-66
2022/12/18 12:05:06;;;;;;;21.88;10.35;;;;;;;;;;4971423;28;20506;-66
2022/12/18 12:07:34;;;;;;;24.95;11.38;;;;;;;;;;5001480;28;20057;-66
2022/12/18 12:10:20;;;;;;;21.17;9.20;;;;;;;;;;5011998;28;20041;-66
2022/12/18 12:13:06;;;;;;;19.83;10.38;;;;;;;;;;5012784;28;20129;-66
2022/12/18 12:16:02;;;;;;;30.95;10.70;;;;;;;;;;5012644;28;20092;-66
2022/12/18 12:18:49;;;;;;;18.15;8.88;;;;;;;;;;5012446;28;20026;-66
2022/12/18 12:21:41;;;;;;;28.38;11.95;;;;;;;;;;5010925;28;20345;-67
2022/12/18 12:24:16;;;;;;;24.33;11.10;;;;;;;;;;5012358;28;20061;-67
2022/12/18 12:27:00;;;;;;;25.70;10.90;;;;;;;;;;5011966;28;20064;-67
2022/12/18 12:29:51;;;;;;;24.50;11.45;;;;;;;;;;5015273;28;20029;-67
2022/12/18 12:32:49;;;;;;;22.70;11.05;;;;;;;;;;5016376;28;20029;-66
2022/12/18 12:35:27;;;;;;;14.82;7.07;;;;;;;;;;5016282;28;20033;-67
2022/12/18 12:38:06;;;;;;;27.75;11.80;;;;;;;;;;5016227;28;20061;-67
2022/12/18 12:40:36;;;;;;;11.50;6.90;;;;;;;;;;5016344;28;20428;-67
2022/12/18 12:43:23;;;;;;;26.85;11.73;;;;;;;;;;5016314;28;20026;-67
2022/12/18 12:46:01;;;;;;;16.38;7.90;;;;;;;;;;5016173;28;20022;-67
2022/12/18 12:48:32;;;;;;;24.88;9.10;;;;;;;;;;5015927;28;20391;-67
2022/12/18 12:51:02;;;;;;;27.27;11.90;;;;;;;;;;5015879;28;20112;-67
2022/12/18 12:53:32;;;;;;;8.70;6.30;;;;;;;;;;5016219;28;20026;-67
2022/12/18 12:55:58;;;;;;;14.25;7.07;;;;;;;;;;5016035;28;20301;-67
2022/12/18 12:58:33;;;;;;;31.58;9.93;;;;;;;;;;5016031;28;20022;-67
2022/12/18 13:01:12;;;;;;;21.17;9.73;;;;;;;;;;5015988;28;20025;-67
2022/12/18 13:04:15;;;;;;;25.33;10.95;;;;;;;;;;5015954;28;20025;-68
2022/12/18 13:07:01;;;;;;;12.02;7.82;;;;;;;;;;5015792;28;20058;-67
2022/12/18 13:09:31;;;;;;;11.48;6.00;;;;;;;;;;4997302;28;20060;-67
2022/12/18 13:14:47;;;;;;;23.55;10.13;;;;;;;;;;4996254;28;20104;-67
2022/12/18 13:17:16;;;;;;;28.60;11.20;;;;;;;;;;4996207;28;20461;-67
2022/12/18 13:19:42;;;;;;;15.50;9.40;;;;;;;;;;4995647;28;20081;-67
2022/12/18 13:22:31;;;;;;;25.67;11.50;;;;;;;;;;4995671;28;20157;-68
2022/12/18 13:24:57;;;;;;;17.20;9.25;;;;;;;;;;5012954;28;20136;-67
2022/12/18 13:27:43;;;;;;;15.43;8.00;;;;;;;;;;5014421;28;20121;-67
2022/12/18 13:30:33;;;;;;;14.05;6.57;;;;;;;;;;5010456;28;20045;-67
2022/12/18 13:33:14;;;;;;;26.05;11.18;;;;;;;;;;5012990;28;20045;-66
2022/12/18 13:35:45;;;;;;;21.25;9.57;;;;;;;;;;5012948;28;20026;-67
2022/12/18 13:38:21;;;;;;;23.90;10.82;;;;;;;;;;5010886;28;20032;-66
2022/12/18 13:40:47;;;;;;;24.33;11.45;;;;;;;;;;5009136;28;20425;-66
2022/12/18 13:43:21;;;;;;;26.63;9.60;;;;;;;;;;5014625;28;20121;-66
2022/12/18 13:46:00;;;;;;;17.70;8.50;;;;;;;;;;5002889;28;20027;-67
2022/12/18 13:48:28;;;;;;;18.52;8.38;;;;;;;;;;5005392;28;20053;-67
2022/12/18 13:51:17;;;;;;;24.20;9.55;;;;;;;;;;5013730;28;20021;-67
2022/12/18 13:54:14;;;;;;;18.95;9.50;;;;;;;;;;5009347;28;20439;-66
2022/12/18 13:56:45;;;;;;;13.82;7.35;;;;;;;;;;5008425;28;20491;-67
2022/12/18 13:59:12;;;;;;;23.70;8.80;;;;;;;;;;5013546;28;20022;-66
2022/12/18 14:01:46;;;;;;;19.13;9.52;;;;;;;;;;5012955;28;20030;-67
2022/12/18 14:04:33;;;;;;;21.52;10.32;;;;;;;;;;5013190;28;20033;-67
2022/12/18 14:07:04;;;;;;;20.20;9.25;;;;;;;;;;5012206;28;20108;-67
2022/12/18 14:09:34;;;;;;;11.35;6.38;;;;;;;;;;5013436;28;20026;-66
2022/12/18 14:14:50;;;;;;;18.55;9.52;;;;;;;;;;4939941;29;20039;-66
2022/12/18 14:17:16;;;;;;;18.90;9.32;;;;;;;;;;4944053;28;20044;-66
2022/12/18 14:19:44;;;;;;;16.92;8.00;;;;;;;;;;4952007;28;20110;-67
2022/12/18 14:22:27;;;;;;;17.85;9.13;;;;;;;;;;4939088;29;20132;-66
2022/12/18 14:25:13;;;;;;;20.73;8.38;;;;;;;;;;4949409;29;20171;-64
2022/12/18 14:27:53;;;;;;;20.10;10.50;;;;;;;;;;4953038;29;20043;-65
2022/12/18 14:30:25;;;;;;;20.98;10.98;;;;;;;;;;4937451;29;20027;-66
2022/12/18 14:33:14;;;;;;;14.50;7.95;;;;;;;;;;4947081;28;20398;-67
2022/12/18 14:36:01;;;;;;;15.07;7.43;;;;;;;;;;4946247;28;20066;-67
2022/12/18 14:38:37;;;;;;;16.00;8.80;;;;;;;;;;4939758;28;20166;-67
2022/12/18 14:41:09;;;;;;;14.77;8.15;;;;;;;;;;4945328;29;20034;-66
2022/12/18 14:43:37;;;;;;;12.88;7.20;;;;;;;;;;4947181;28;20395;-66
2022/12/18 14:46:05;;;;;;;19.98;9.18;;;;;;;;;;4934293;29;20069;-67
2022/12/18 14:48:33;;;;;;;15.60;9.32;;;;;;;;;;4948500;28;20032;-66
2022/12/18 14:51:10;;;;;;;21.85;9.10;;;;;;;;;;4948597;28;20096;-66
2022/12/18 14:53:42;;;;;;;13.23;6.75;;;;;;;;;;4994799;28;20033;-66
2022/12/18 14:56:21;;;;;;;18.02;9.10;;;;;;;;;;4989890;28;20485;-66